createdAt,value
2023-05-10T00:00:24.321Z,99680.04
2023-05-10T00:03:20.834Z,99672.58
2023-05-10T00:05:59.354Z,99671.38
2023-05-10T00:09:07.518Z,99667.78
2023-05-10T00:11:36.306Z,99663.64
2023-05-10T00:14:13.944Z,99664.05
2023-05-10T00:17:15.886Z,99656.70
2023-05-10T00:19:49.438Z,99663.73
2023-05-10T00:22:38.442Z,99654.88
2023-05-10T00:25:22.000Z,99653.66
2023-05-10T00:27:50.908Z,99652.84
2023-05-10T00:30:36.713Z,99654.61
2023-05-10T00:33:23.788Z,99652.35
2023-05-10T00:36:08.718Z,99651.58
2023-05-10T00:38:57.365Z,99642.60
2023-05-10T00:41:54.158Z,99642.14
2023-05-10T00:44:32.160Z,99642.64
2023-05-10T00:47:17.796Z,99642.00
2023-05-10T00:50:29.947Z,99635.98
2023-05-10T00:53:28.379Z,99632.42
2023-05-10T00:56:01.483Z,99634.47
2023-05-10T00:58:33.104Z,99630.73
2023-05-10T01:01:02.995Z,99630.95
2023-05-10T01:03:32.143Z,99628.38
2023-05-10T01:06:17.225Z,99623.48
2023-05-10T01:08:45.738Z,99625.25
2023-05-10T01:11:48.232Z,99625.30
2023-05-10T01:14:49.084Z,99627.19
2023-05-10T01:17:23.998Z,99622.86
2023-05-10T01:20:37.368Z,99620.88
2023-05-10T01:24:00.198Z,99622.35
2023-05-10T01:27:09.862Z,99622.86
2023-05-10T01:30:15.503Z,99620.91
2023-05-10T01:33:19.634Z,99618.39
2023-05-10T01:36:26.150Z,99617.73
2023-05-10T01:39:21.595Z,99617.80
2023-05-10T01:42:32.685Z,99611.83
2023-05-10T01:45:25.519Z,99609.86
2023-05-10T01:48:34.637Z,99609.42
2023-05-10T01:51:53.099Z,99604.61
2023-05-10T01:54:46.972Z,99612.02
2023-05-10T01:57:40.885Z,99609.52
2023-05-10T02:00:30.215Z,99615.08
2023-05-10T02:03:20.434Z,99612.95
2023-05-10T02:06:27.939Z,99609.84
2023-05-10T02:09:17.355Z,99608.45
2023-05-10T02:12:04.429Z,99606.59
2023-05-10T02:15:27.052Z,99617.42
2023-05-10T02:18:06.877Z,99617.05
2023-05-10T02:21:04.956Z,99609.96
2023-05-10T02:24:07.975Z,99608.23
2023-05-10T02:26:59.201Z,99602.92
2023-05-10T02:29:40.920Z,99599.13
2023-05-10T02:32:48.861Z,99590.86
2023-05-10T02:35:34.852Z,99588.39
2023-05-10T02:38:54.747Z,99588.61
2023-05-10T02:41:34.416Z,99588.02
2023-05-10T02:44:13.072Z,99590.16
2023-05-10T02:47:02.024Z,99587.58
2023-05-10T02:50:04.113Z,99590.15
2023-05-10T02:53:18.024Z,99590.05
2023-05-10T02:56:27.080Z,99594.58
2023-05-10T02:59:46.171Z,99591.11
2023-05-10T03:02:31.616Z,99589.54
2023-05-10T03:05:11.750Z,99589.16
2023-05-10T03:08:00.643Z,99589.26
2023-05-10T03:11:29.167Z,99590.95
2023-05-10T03:14:34.233Z,99585.77
2023-05-10T03:17:46.245Z,99584.05
2023-05-10T03:20:49.789Z,99582.83
2023-05-10T03:23:49.661Z,99579.09
2023-05-10T03:26:58.704Z,99579.13
2023-05-10T03:29:42.733Z,99571.98
2023-05-10T03:33:12.876Z,99571.98
2023-05-10T03:36:13.831Z,99570.62
2023-05-10T03:39:00.698Z,99569.62
2023-05-10T03:41:29.923Z,99572.33
2023-05-10T03:44:01.311Z,99576.20
2023-05-10T03:46:56.607Z,99576.46
2023-05-10T03:49:33.466Z,99577.02
2023-05-10T03:52:37.144Z,99579.55
2023-05-10T03:55:56.660Z,99581.31
2023-05-10T03:59:10.262Z,99581.06
2023-05-10T04:01:50.272Z,99584.23
2023-05-10T04:05:08.660Z,99585.06
2023-05-10T04:08:00.626Z,99585.02
2023-05-10T04:10:58.873Z,99582.62
2023-05-10T04:13:58.899Z,99576.73
2023-05-10T04:16:27.388Z,99575.52
2023-05-10T04:19:05.242Z,99571.52
2023-05-10T04:21:33.631Z,99568.73
2023-05-10T04:24:38.736Z,99570.13
2023-05-10T04:27:07.151Z,99569.02
2023-05-10T04:29:35.675Z,99567.05
2023-05-10T04:32:21.564Z,99566.58
2023-05-10T04:34:59.401Z,99564.10
2023-05-10T04:37:28.320Z,99561.84
2023-05-10T04:40:01.237Z,99553.91
2023-05-10T04:42:29.919Z,99556.20
2023-05-10T04:45:04.994Z,99561.63
2023-05-10T04:48:25.384Z,99559.31
2023-05-10T04:51:22.621Z,99555.19
2023-05-10T04:54:05.105Z,99556.55
2023-05-10T04:56:45.586Z,99552.46
2023-05-10T04:59:45.252Z,99550.45
2023-05-10T05:02:46.257Z,99548.80
2023-05-10T05:05:26.365Z,99547.79
2023-05-10T05:07:54.735Z,99546.33
2023-05-10T05:10:45.547Z,99542.80
2023-05-10T05:13:44.441Z,99544.29
2023-05-10T05:16:19.534Z,99541.68
2023-05-10T05:18:48.311Z,99538.76
2023-05-10T05:21:18.647Z,99533.77
2023-05-10T05:24:01.171Z,99531.69
2023-05-10T05:26:51.697Z,99534.62
2023-05-10T05:29:32.197Z,99533.66
2023-05-10T05:32:18.524Z,99531.95
2023-05-10T05:34:49.784Z,99534.04
2023-05-10T05:37:22.315Z,99526.52
2023-05-10T05:40:08.109Z,99523.79
2023-05-10T05:43:05.347Z,99523.14
2023-05-10T05:45:41.222Z,99525.00
2023-05-10T05:48:28.871Z,99523.92
2023-05-10T05:50:57.829Z,99524.77
2023-05-10T05:53:26.654Z,99529.39
2023-05-10T05:56:00.464Z,99524.50
2023-05-10T05:58:29.148Z,99525.15
2023-05-10T06:01:00.178Z,99526.89
2023-05-10T06:03:57.341Z,99531.23
2023-05-10T06:06:52.757Z,99531.78
2023-05-10T06:09:45.059Z,99525.81
2023-05-10T06:12:21.212Z,99529.38
2023-05-10T06:15:32.209Z,99532.56
2023-05-10T06:18:10.797Z,99528.58
2023-05-10T06:20:52.860Z,99532.84
2023-05-10T06:23:24.628Z,99534.41
2023-05-10T06:26:13.564Z,99532.75
2023-05-10T06:28:46.979Z,99531.95
2023-05-10T06:31:24.169Z,99537.36
2023-05-10T06:34:13.427Z,99526.22
2023-05-10T06:36:47.242Z,99529.83
2023-05-10T06:39:20.984Z,99530.73
2023-05-10T06:41:55.473Z,99531.52
2023-05-10T06:45:11.867Z,99533.34
2023-05-10T06:48:20.626Z,99537.18
2023-05-10T06:51:30.220Z,99531.84
2023-05-10T06:54:24.332Z,99530.73
2023-05-10T06:57:36.253Z,99525.59
2023-05-10T07:00:16.582Z,99529.45
2023-05-10T07:03:13.499Z,99530.59
2023-05-10T07:05:45.178Z,99533.29
2023-05-10T07:08:14.531Z,99530.77
2023-05-10T07:11:02.555Z,99537.20
2023-05-10T07:13:37.419Z,99532.73
2023-05-10T07:16:39.304Z,99535.24
2023-05-10T07:19:30.968Z,99527.14
2023-05-10T07:21:59.834Z,99522.75
2023-05-10T07:24:45.763Z,99516.46
2023-05-10T07:27:54.854Z,99522.48
2023-05-10T07:30:35.985Z,99519.15
2023-05-10T07:33:36.634Z,99520.27
2023-05-10T07:36:32.104Z,99510.85
2023-05-10T07:39:27.745Z,99522.11
2023-05-10T07:42:13.558Z,99524.74
2023-05-10T07:44:48.359Z,99517.88
2023-05-10T07:47:25.596Z,99516.83
2023-05-10T07:50:22.408Z,99515.33
2023-05-10T07:53:00.246Z,99511.10
2023-05-10T07:55:28.769Z,99514.46
2023-05-10T07:58:02.398Z,99517.00
2023-05-10T08:00:57.700Z,99510.73
2023-05-10T08:03:39.281Z,99513.02
2023-05-10T08:06:33.444Z,99514.23
2023-05-10T08:09:02.448Z,99509.94
2023-05-10T08:12:17.878Z,99508.05
2023-05-10T08:14:46.909Z,99508.24
2023-05-10T08:17:26.255Z,99504.41
2023-05-10T08:19:54.401Z,99508.77
2023-05-10T08:22:35.744Z,99505.06
2023-05-10T08:25:22.442Z,99502.92
2023-05-10T08:27:51.891Z,99503.52
2023-05-10T08:30:32.789Z,99501.27
2023-05-10T08:33:04.588Z,99505.17
2023-05-10T08:35:34.351Z,99505.00
2023-05-10T08:38:04.386Z,99498.84
2023-05-10T08:40:43.508Z,99506.20
2023-05-10T08:43:17.091Z,99497.63
2023-05-10T08:46:26.039Z,99499.42
2023-05-10T08:48:55.282Z,99500.91
2023-05-10T08:52:05.382Z,99497.41
2023-05-10T08:54:54.943Z,99496.82
2023-05-10T08:57:32.154Z,99495.37
2023-05-10T09:00:03.788Z,99501.72
2023-05-10T09:02:32.716Z,99499.77
2023-05-10T09:05:04.985Z,99497.36
2023-05-10T09:07:54.016Z,99501.55
2023-05-10T09:10:43.196Z,99501.63
2023-05-10T09:13:15.282Z,99503.09
2023-05-10T09:15:45.145Z,99497.28
2023-05-10T09:18:16.586Z,99490.20
2023-05-10T09:21:37.978Z,99498.05
2023-05-10T09:24:18.624Z,99484.42
2023-05-10T09:27:06.743Z,99488.73
2023-05-10T09:29:44.569Z,99494.82
2023-05-10T09:32:13.774Z,99491.49
2023-05-10T09:35:23.303Z,99498.29
2023-05-10T09:37:55.137Z,99493.64
2023-05-10T09:40:28.229Z,99501.70
2023-05-10T09:43:19.879Z,99502.40
2023-05-10T09:45:52.315Z,99502.58
2023-05-10T09:48:25.397Z,99498.26
2023-05-10T09:51:00.162Z,99503.86
2023-05-10T09:53:31.797Z,99494.80
2023-05-10T09:56:12.649Z,99496.89
2023-05-10T09:59:22.820Z,99486.66
2023-05-10T10:01:52.696Z,99489.67
2023-05-10T10:04:30.755Z,99481.57
2023-05-10T10:07:24.823Z,99489.77
2023-05-10T10:10:12.477Z,99488.73
2023-05-10T10:12:58.840Z,99489.02
2023-05-10T10:15:40.832Z,99486.39
2023-05-10T10:18:17.015Z,99476.45
2023-05-10T10:20:56.229Z,99477.29
2023-05-10T10:23:33.646Z,99478.19
2023-05-10T10:26:11.779Z,99480.52
2023-05-10T10:29:28.808Z,99481.27
2023-05-10T10:32:20.211Z,99469.61
2023-05-10T10:35:24.448Z,99478.84
2023-05-10T10:37:52.970Z,99476.10
2023-05-10T10:40:34.620Z,99473.92
2023-05-10T10:43:46.079Z,99468.23
2023-05-10T10:46:18.973Z,99460.70
2023-05-10T10:49:14.708Z,99462.46
2023-05-10T10:52:42.446Z,99470.66
2023-05-10T10:55:32.292Z,99461.85
2023-05-10T10:58:42.622Z,99461.98
2023-05-10T11:01:33.761Z,99454.42
2023-05-10T11:04:25.717Z,99455.08
2023-05-10T11:07:27.750Z,99454.12
2023-05-10T11:10:37.371Z,99457.34
2023-05-10T11:13:36.879Z,99450.89
2023-05-10T11:16:28.318Z,99455.44
2023-05-10T11:19:20.845Z,99460.48
2023-05-10T11:21:50.850Z,99458.60
2023-05-10T11:24:40.567Z,99454.81
2023-05-10T11:28:10.940Z,99451.07
2023-05-10T11:30:41.292Z,99452.56
2023-05-10T11:33:30.161Z,99459.12
2023-05-10T11:36:32.300Z,99462.05
2023-05-10T11:39:12.656Z,99458.84
2023-05-10T11:41:44.150Z,99464.84
2023-05-10T11:44:22.999Z,99459.86
2023-05-10T11:47:11.752Z,99453.73
2023-05-10T11:49:49.988Z,99457.53
2023-05-10T11:52:31.003Z,99464.08
2023-05-10T11:55:20.192Z,99462.77
2023-05-10T11:58:06.341Z,99458.36
2023-05-10T12:00:47.542Z,99459.71
2023-05-10T12:03:32.950Z,99462.02
2023-05-10T12:06:11.870Z,99458.11
2023-05-10T12:08:55.454Z,99464.07
2023-05-10T12:11:44.222Z,99465.29
2023-05-10T12:14:25.276Z,99468.56
2023-05-10T12:17:01.140Z,99482.66
2023-05-10T12:19:40.244Z,99480.89
2023-05-10T12:22:11.773Z,99470.73
2023-05-10T12:24:40.693Z,99473.54
2023-05-10T12:27:10.019Z,99465.17
2023-05-10T12:29:45.027Z,99466.12
2023-05-10T12:32:45.860Z,99464.98
2023-05-10T12:35:23.248Z,99467.59
2023-05-10T12:38:27.722Z,99465.61
2023-05-10T12:41:12.499Z,99463.50
2023-05-10T12:43:41.949Z,99459.19
2023-05-10T12:46:35.777Z,99457.36
2023-05-10T12:49:24.873Z,99461.45
2023-05-10T12:52:13.509Z,99453.60
2023-05-10T12:54:50.926Z,99453.78
2023-05-10T12:57:19.311Z,99462.75
2023-05-10T12:59:51.006Z,99458.59
2023-05-10T13:02:19.506Z,99465.15
2023-05-10T13:04:51.003Z,99461.60
2023-05-10T13:07:19.750Z,99464.45
2023-05-10T13:09:50.893Z,99458.98
2023-05-10T13:12:21.211Z,99453.98
2023-05-10T13:14:50.218Z,99453.80
2023-05-10T13:17:28.038Z,99455.88
2023-05-10T13:20:06.992Z,99452.14
2023-05-10T13:22:40.103Z,99456.39
2023-05-10T13:25:10.504Z,99456.18
2023-05-10T13:27:40.413Z,99457.25
2023-05-10T13:30:10.678Z,99452.42
2023-05-10T13:32:46.918Z,99452.00
2023-05-10T13:35:19.787Z,99450.14
2023-05-10T13:37:57.877Z,99448.30
2023-05-10T13:40:26.508Z,99441.06
2023-05-10T13:42:55.352Z,99443.10
2023-05-10T13:45:23.816Z,99435.30
2023-05-10T13:47:54.830Z,99433.48
2023-05-10T13:50:32.716Z,99435.69
2023-05-10T13:53:10.775Z,99440.49
2023-05-10T13:55:42.305Z,99442.59
2023-05-10T13:58:11.926Z,99445.27
2023-05-10T14:00:40.462Z,99438.39
2023-05-10T14:03:12.300Z,99439.80
2023-05-10T14:05:44.265Z,99435.08
2023-05-10T14:08:14.414Z,99438.75
2023-05-10T14:10:43.139Z,99435.17
2023-05-10T14:13:11.578Z,99433.29
2023-05-10T14:15:49.303Z,99435.00
2023-05-10T14:18:17.956Z,99427.54
2023-05-10T14:20:58.426Z,99427.31
2023-05-10T14:23:35.611Z,99426.83
2023-05-10T14:26:04.666Z,99429.85
2023-05-10T14:28:36.583Z,99424.13
2023-05-10T14:31:06.778Z,99419.44
2023-05-10T14:33:35.116Z,99424.56
2023-05-10T14:36:04.746Z,99416.69
2023-05-10T14:38:34.028Z,99430.52
2023-05-10T14:41:03.151Z,99419.14
2023-05-10T14:43:31.660Z,99413.88
2023-05-10T14:46:00.800Z,99413.98
2023-05-10T14:48:33.607Z,99418.27
2023-05-10T14:51:02.249Z,99419.04
2023-05-10T14:53:38.353Z,99413.04
2023-05-10T14:56:08.394Z,99417.29
2023-05-10T14:58:36.822Z,99419.92
2023-05-10T15:01:08.751Z,99414.86
2023-05-10T15:03:40.867Z,99416.14
2023-05-10T15:06:10.468Z,99421.58
2023-05-10T15:08:42.318Z,99428.55
2023-05-10T15:11:17.480Z,99427.86
2023-05-10T15:13:45.782Z,99418.22
2023-05-10T15:16:14.346Z,99426.11
2023-05-10T15:18:42.766Z,99428.70
2023-05-10T15:21:11.682Z,99427.38
2023-05-10T15:23:39.885Z,99430.65
2023-05-10T15:26:09.029Z,99434.27
2023-05-10T15:28:48.086Z,99434.52
2023-05-10T15:31:38.645Z,99433.88
2023-05-10T15:34:09.897Z,99440.60
2023-05-10T15:36:39.169Z,99438.54
2023-05-10T15:39:08.012Z,99434.60
2023-05-10T15:41:46.348Z,99436.71
2023-05-10T15:44:15.365Z,99435.50
2023-05-10T15:46:44.319Z,99448.27
2023-05-10T15:49:13.366Z,99445.39
2023-05-10T15:51:42.683Z,99442.94
2023-05-10T15:54:12.062Z,99442.71
2023-05-10T15:56:41.752Z,99441.50
2023-05-10T15:59:12.003Z,99445.64
2023-05-10T16:01:50.181Z,99440.83
2023-05-10T16:04:44.958Z,99447.51
2023-05-10T16:07:13.398Z,99447.05
2023-05-10T16:09:53.207Z,99449.20
2023-05-10T16:12:25.575Z,99449.15
2023-05-10T16:14:54.070Z,99447.34
2023-05-10T16:17:23.133Z,99446.95
2023-05-10T16:19:54.819Z,99446.20
2023-05-10T16:22:32.691Z,99446.71
2023-05-10T16:25:01.149Z,99451.59
2023-05-10T16:27:30.636Z,99453.32
2023-05-10T16:30:08.942Z,99453.63
2023-05-10T16:32:45.076Z,99459.45
2023-05-10T16:35:17.776Z,99456.48
2023-05-10T16:37:49.301Z,99458.77
2023-05-10T16:40:20.959Z,99463.78
2023-05-10T16:42:49.626Z,99461.05
2023-05-10T16:45:21.186Z,99459.08
2023-05-10T16:47:49.704Z,99460.98
2023-05-10T16:50:18.880Z,99464.17
2023-05-10T16:52:49.954Z,99467.55
2023-05-10T16:55:19.715Z,99468.80
2023-05-10T16:58:08.751Z,99469.30
2023-05-10T17:00:40.943Z,99471.45
2023-05-10T17:03:18.018Z,99476.77
2023-05-10T17:05:47.222Z,99478.19
2023-05-10T17:08:33.151Z,99479.20
2023-05-10T17:11:04.980Z,99481.07
2023-05-10T17:13:33.509Z,99483.97
2023-05-10T17:16:05.110Z,99487.50
2023-05-10T17:18:34.027Z,99490.02
2023-05-10T17:21:02.729Z,99491.16
2023-05-10T17:23:39.644Z,99495.89
2023-05-10T17:26:09.189Z,99492.08
2023-05-10T17:29:01.199Z,99498.23
2023-05-10T17:31:34.398Z,99499.46
2023-05-10T17:34:06.877Z,99501.86
2023-05-10T17:36:36.779Z,99497.13
2023-05-10T17:39:05.330Z,99502.15
2023-05-10T17:41:33.767Z,99503.88
2023-05-10T17:44:05.758Z,99504.22
2023-05-10T17:46:35.708Z,99503.56
2023-05-10T17:49:06.735Z,99507.27
2023-05-10T17:51:51.658Z,99507.45
2023-05-10T17:54:40.761Z,99510.62
2023-05-10T17:57:09.204Z,99513.95
2023-05-10T17:59:38.877Z,99515.39
2023-05-10T18:02:16.918Z,99521.11
2023-05-10T18:05:08.830Z,99517.26
2023-05-10T18:07:37.400Z,99521.83
2023-05-10T18:10:20.056Z,99523.87
2023-05-10T18:12:50.755Z,99528.77
2023-05-10T18:15:22.332Z,99527.70
2023-05-10T18:17:50.950Z,99532.94
2023-05-10T18:20:40.410Z,99535.15
2023-05-10T18:23:13.244Z,99538.45
2023-05-10T18:26:14.894Z,99537.45
2023-05-10T18:28:43.460Z,99538.08
2023-05-10T18:31:12.955Z,99542.58
2023-05-10T18:33:42.687Z,99540.64
2023-05-10T18:36:12.044Z,99544.54
2023-05-10T18:38:47.661Z,99548.72
2023-05-10T18:41:19.291Z,99551.92
2023-05-10T18:43:53.496Z,99557.65
2023-05-10T18:46:22.220Z,99562.21
2023-05-10T18:48:56.130Z,99568.40
2023-05-10T18:51:33.135Z,99569.30
2023-05-10T18:54:08.029Z,99576.52
2023-05-10T18:56:59.047Z,99578.99
2023-05-10T18:59:34.486Z,99582.02
2023-05-10T19:02:04.995Z,99583.30
2023-05-10T19:04:42.756Z,99593.00
2023-05-10T19:07:14.518Z,99590.84
2023-05-10T19:09:51.703Z,99598.37
2023-05-10T19:12:21.654Z,99598.13
2023-05-10T19:14:51.091Z,99596.51
2023-05-10T19:17:31.919Z,99601.05
2023-05-10T19:20:03.843Z,99603.96
2023-05-10T19:23:02.080Z,99601.52
2023-05-10T19:25:39.756Z,99609.52
2023-05-10T19:28:11.684Z,99609.11
2023-05-10T19:30:41.883Z,99607.98
2023-05-10T19:33:18.553Z,99607.54
2023-05-10T19:35:59.623Z,99610.55
2023-05-10T19:38:28.105Z,99611.19
2023-05-10T19:41:06.841Z,99614.17
2023-05-10T19:43:37.152Z,99618.23
2023-05-10T19:46:06.094Z,99615.13
2023-05-10T19:48:37.667Z,99614.27
2023-05-10T19:51:09.339Z,99614.38
2023-05-10T19:53:40.339Z,99617.55
2023-05-10T19:56:09.230Z,99622.05
2023-05-10T19:58:40.892Z,99621.08
2023-05-10T20:01:09.642Z,99623.32
2023-05-10T20:03:38.321Z,99626.11
2023-05-10T20:06:09.726Z,99627.32
2023-05-10T20:11:26.020Z,99627.55
2023-05-10T20:13:57.299Z,99628.55
2023-05-10T20:16:34.928Z,99628.11
2023-05-10T20:19:03.466Z,99630.18
2023-05-10T20:21:37.343Z,99629.33
2023-05-10T20:24:07.924Z,99631.55
2023-05-10T20:26:39.228Z,99632.16
2023-05-10T20:29:07.945Z,99630.57
2023-05-10T20:31:48.516Z,99632.92
2023-05-10T20:34:40.343Z,99632.71
2023-05-10T20:37:11.291Z,99635.41
2023-05-10T20:39:47.439Z,99633.79
2023-05-10T20:42:18.316Z,99636.73
2023-05-10T20:44:47.474Z,99636.60
2023-05-10T20:47:16.616Z,99637.76
2023-05-10T20:49:47.784Z,99634.85
2023-05-10T20:52:19.719Z,99630.89
2023-05-10T20:54:48.332Z,99638.60
2023-05-10T20:57:17.104Z,99633.80
2023-05-10T20:59:45.391Z,99639.48
2023-05-10T21:02:21.328Z,99635.89
2023-05-10T21:04:49.820Z,99637.84
2023-05-10T21:07:34.655Z,99634.53
2023-05-10T21:10:03.818Z,99634.31
2023-05-10T21:12:38.127Z,99637.52
2023-05-10T21:15:25.796Z,99640.94
2023-05-10T21:17:54.855Z,99641.00
2023-05-10T21:20:24.098Z,99639.05
2023-05-10T21:22:52.582Z,99641.11
2023-05-10T21:25:23.261Z,99645.44
2023-05-10T21:27:54.648Z,99650.19
2023-05-10T21:30:23.499Z,99646.34
2023-05-10T21:32:53.989Z,99643.36
2023-05-10T21:35:25.623Z,99644.09
2023-05-10T21:37:54.230Z,99644.70
2023-05-10T21:40:25.778Z,99650.07
2023-05-10T21:42:56.738Z,99647.67
2023-05-10T21:45:29.316Z,99646.43
2023-05-10T21:48:06.683Z,99644.02
2023-05-10T21:50:38.183Z,99646.48
2023-05-10T21:53:21.219Z,99649.29
2023-05-10T21:55:55.361Z,99649.77
2023-05-10T21:58:49.357Z,99647.98
2023-05-10T22:01:30.553Z,99650.31
2023-05-10T22:03:59.056Z,99649.29
2023-05-10T22:06:27.667Z,99650.05
2023-05-10T22:08:56.371Z,99652.20
2023-05-10T22:11:27.580Z,99652.85
2023-05-10T22:14:09.345Z,99652.24
2023-05-10T22:16:38.413Z,99659.01
2023-05-10T22:19:06.782Z,99659.99
2023-05-10T22:22:12.419Z,99659.55
2023-05-10T22:24:40.975Z,99665.84
2023-05-10T22:27:38.945Z,99664.55
2023-05-10T22:30:26.103Z,99662.10
2023-05-10T22:33:17.917Z,99667.48
2023-05-10T22:36:29.551Z,99667.27
2023-05-10T22:39:33.665Z,99670.24
2023-05-10T22:42:02.772Z,99667.09
2023-05-10T22:44:34.527Z,99666.95
2023-05-10T22:47:13.472Z,99664.86
2023-05-10T22:50:05.458Z,99668.67
2023-05-10T22:52:54.090Z,99669.33
2023-05-10T22:55:23.286Z,99672.44
2023-05-10T22:57:52.779Z,99672.59
2023-05-10T23:00:25.779Z,99675.54
2023-05-10T23:03:15.298Z,99679.02
2023-05-10T23:05:44.328Z,99683.05
2023-05-10T23:08:15.381Z,99690.17
2023-05-10T23:10:47.454Z,99688.45
2023-05-10T23:13:50.690Z,99688.55
2023-05-10T23:16:30.736Z,99691.35
2023-05-10T23:19:04.612Z,99689.73
2023-05-10T23:21:33.884Z,99689.14
2023-05-10T23:24:09.955Z,99688.91
2023-05-10T23:26:46.666Z,99695.11
2023-05-10T23:30:00.753Z,99693.80
2023-05-10T23:32:33.227Z,99695.71
2023-05-10T23:35:05.165Z,99697.30
2023-05-10T23:38:14.096Z,99695.19
2023-05-10T23:40:51.709Z,99698.09
2023-05-10T23:43:49.397Z,99699.05
2023-05-10T23:46:17.802Z,99702.45
2023-05-10T23:48:47.225Z,99703.50
2023-05-10T23:52:27.652Z,99702.28
2023-05-10T23:54:58.810Z,99702.14
2023-05-10T23:57:41.993Z,99708.52
